Accord — SVA7378 — position and weather

sailwx.info

Track history (hours):
 
Tides and Currents Weather Stations Pressure Air Temp Water Temp Dewpoint Dewpoint Depression Visibility Wind Speed Wind Dir Waves Ship Positions

Accord

Last reported at 2018-Feb-23 18:30 UTC. Time now 2018-Feb-23 18:44 UTC.
Position N 38°02' E 023°31'.

Length 77 m; draft 4.4 m.

Type: Tanker. MMSI: 239998600.

Date/timePositionNaut miles runAvg speedWind from/ knotsBaromVisibWave heightAir tempDewpointWater temp
2018-Feb-23 18:30N 38°02' E 023°31'0 0.0
2018-Feb-23 18:00N 38°02' E 023°31'0 0.0
2018-Feb-23 17:30N 38°02' E 023°31'0 0.0
2018-Feb-23 17:01N 38°02' E 023°31'0 0.0
2018-Feb-23 16:30N 38°02' E 023°31'0 0.3
2018-Feb-23 16:00N 38°02' E 023°32'4 8.2
2018-Feb-23 15:30N 37°58' E 023°33'3 6.6
2018-Feb-23 15:00N 37°55' E 023°34'2 3.8
2018-Feb-23 14:30N 37°53' E 023°34'0 0.1
2018-Feb-23 14:00N 37°53' E 023°34'0 0.0
2018-Feb-23 13:30N 37°53' E 023°34'0 0.0
2018-Feb-23 13:00N 37°53' E 023°34'0 0.1
2018-Feb-23 12:30N 37°53' E 023°34'2 3.3
2018-Feb-23 12:00N 37°52' E 023°32'1 2.2
2018-Feb-23 11:30N 37°51' E 023°31'0 0.1
2018-Feb-23 11:00N 37°51' E 023°31'0 0.1
2018-Feb-23 10:30N 37°51' E 023°31'0 0.2
2018-Feb-23 10:00N 37°51' E 023°31'0 0.1
2018-Feb-23 09:30N 37°51' E 023°31'0 0.1
2018-Feb-23 09:00N 37°51' E 023°31'0 0.1
2018-Feb-23 08:30N 37°51' E 023°31'0 0.0
2018-Feb-23 08:00N 37°51' E 023°31'0 0.0
2018-Feb-23 07:30N 37°51' E 023°31'0 0.0
2018-Feb-23 07:00N 37°51' E 023°31'0 0.4
2018-Feb-23 06:30N 37°51' E 023°31'4 7.8
2018-Feb-23 06:00N 37°55' E 023°33'3 5.5
2018-Feb-23 05:30N 37°57' E 023°33'4 7.7
2018-Feb-23 05:00N 38°01' E 023°32'1 3.0
2018-Feb-23 04:30N 38°02' E 023°31'0 0.0
2018-Feb-23 04:00N 38°02' E 023°31'0 0.0
2018-Feb-23 03:30N 38°02' E 023°31'0 0.0
2018-Feb-23 03:00N 38°02' E 023°31'0 0.0
2018-Feb-23 02:31N 38°02' E 023°31'0 0.0
2018-Feb-23 02:01N 38°02' E 023°31'0 0.0
2018-Feb-23 01:30N 38°02' E 023°31'0 0.0
2018-Feb-23 01:01N 38°02' E 023°31'0 0.0
2018-Feb-23 00:31N 38°02' E 023°31'0 0.0
2018-Feb-23 00:01N 38°02' E 023°31'0 0.0
2018-Feb-22 23:31N 38°02' E 023°31'0 0.0
2018-Feb-22 23:00N 38°02' E 023°31'0 0.0
2018-Feb-22 22:30N 38°02' E 023°31'0 0.0
2018-Feb-22 22:01N 38°02' E 023°31'0 0.0
2018-Feb-22 21:31N 38°02' E 023°31'0 1.0
2018-Feb-22 21:00N 38°02' E 023°32'1 2.3
2018-Feb-22 20:30N 38°01' E 023°32'0 0.0
2018-Feb-22 20:00N 38°01' E 023°32'0 0.0
2018-Feb-22 19:30N 38°01' E 023°32'0 0.0
2018-Feb-22 19:00N 38°01' E 023°32'0 0.0
2018-Feb-22 18:30N 38°01' E 023°32'1 2.9
2018-Feb-22 18:00N 38°01' E 023°34'2 3.2
2018-Feb-22 17:31N 38°02' E 023°36'0 0.0
2018-Feb-22 17:00N 38°02' E 023°36'0 0.0
2018-Feb-22 16:31N 38°02' E 023°36'0 0.0
2018-Feb-22 16:00N 38°02' E 023°36'0 0.0
2018-Feb-22 15:30N 38°02' E 023°36'0 0.0
2018-Feb-22 15:00N 38°02' E 023°36'1 1.6
2018-Feb-22 14:30N 38°01' E 023°35'2 4.8
2018-Feb-22 14:00N 37°59' E 023°33'3 6.8
2018-Feb-22 13:30N 37°56' E 023°35'4 7.7
2018-Feb-22 13:00N 37°53' E 023°32'2 3.5
2018-Feb-22 12:30N 37°52' E 023°31'0 0.0
2018-Feb-22 12:00N 37°52' E 023°31'0 0.0
2018-Feb-22 11:30N 37°52' E 023°31'0 0.0
2018-Feb-22 11:00N 37°52' E 023°31'0 0.0
2018-Feb-22 10:30N 37°52' E 023°31'0 0.4
2018-Feb-22 10:00N 37°52' E 023°31'4 8.1
2018-Feb-22 09:30N 37°55' E 023°33'3 5.3
2018-Feb-22 09:00N 37°58' E 023°33'4 8.1
2018-Feb-22 08:30N 38°02' E 023°32'1 1.4
2018-Feb-22 08:00N 38°02' E 023°31'0 0.0
2018-Feb-22 07:30N 38°02' E 023°31'0 0.0
2018-Feb-22 07:00N 38°02' E 023°31'0 0.0
2018-Feb-22 06:30N 38°02' E 023°31'0 0.0
2018-Feb-22 06:00N 38°02' E 023°31'0 0.0
2018-Feb-22 05:30N 38°02' E 023°31'0 0.0
2018-Feb-22 05:00N 38°02' E 023°31'0 0.0
2018-Feb-22 04:30N 38°02' E 023°31'0 0.0
2018-Feb-22 04:00N 38°02' E 023°31'0 0.0
2018-Feb-22 03:30N 38°02' E 023°31'0 0.0
2018-Feb-22 03:00N 38°02' E 023°31'0 0.0
2018-Feb-22 02:30N 38°02' E 023°31'0 0.0
2018-Feb-22 02:00N 38°02' E 023°31'0 0.0
2018-Feb-22 01:30N 38°02' E 023°31'0 0.0
2018-Feb-22 01:00N 38°02' E 023°31'0 0.0
2018-Feb-22 00:31N 38°02' E 023°31'0 0.0
2018-Feb-22 00:00N 38°02' E 023°31'0 0.0
2018-Feb-21 23:30N 38°02' E 023°31'0 0.0
2018-Feb-21 23:00N 38°02' E 023°31'0 0.0
2018-Feb-21 22:30N 38°02' E 023°31'0 0.0
2018-Feb-21 22:01N 38°02' E 023°31'0 0.0
2018-Feb-21 21:30N 38°02' E 023°31'0 0.0
2018-Feb-21 21:00N 38°02' E 023°31'0 0.0
2018-Feb-21 20:30N 38°02' E 023°31'0 0.0
2018-Feb-21 20:01N 38°02' E 023°31'0 0.0
2018-Feb-21 19:30N 38°02' E 023°31'0 0.0
2018-Feb-21 19:00N 38°02' E 023°31'0 0.0
2018-Feb-21 18:31N 38°02' E 023°31'0 0.0
2018-Feb-21 18:00N 38°02' E 023°31'0 0.0
2018-Feb-21 17:30N 38°02' E 023°31'0 0.0
2018-Feb-21 17:00N 38°02' E 023°31'0 0.0
2018-Feb-21 16:30N 38°02' E 023°31'0 0.0
2018-Feb-21 16:00N 38°02' E 023°31'0 0.0
2018-Feb-21 15:30N 38°02' E 023°31'0 0.0
2018-Feb-21 15:01N 38°02' E 023°31'0 0.0
2018-Feb-21 14:30N 38°02' E 023°31'0 0.0
2018-Feb-21 14:01N 38°02' E 023°31'0 0.0
2018-Feb-21 13:30N 38°02' E 023°31'0 0.0
2018-Feb-21 13:00N 38°02' E 023°31'0 0.0
2018-Feb-21 12:30N 38°02' E 023°31'0 0.0
2018-Feb-21 12:00N 38°02' E 023°31'1 2.5
2018-Feb-21 11:30N 38°02' E 023°33'2 4.7
2018-Feb-21 11:00N 38°02' E 023°36'0 0.0
2018-Feb-21 10:30N 38°02' E 023°36'0 0.0
2018-Feb-21 10:00N 38°02' E 023°36'0 0.0
2018-Feb-21 09:30N 38°02' E 023°36'0 0.0
2018-Feb-21 09:00N 38°02' E 023°36'0 0.0
2018-Feb-21 08:30N 38°02' E 023°36'0 0.1
2018-Feb-21 08:01N 38°02' E 023°36'3 6.5
2018-Feb-21 07:31N 38°02' E 023°32'0 0.8
2018-Feb-21 07:01N 38°02' E 023°31'0 0.0
2018-Feb-21 06:30N 38°02' E 023°31'0 0.0
2018-Feb-21 06:01N 38°02' E 023°31'0 0.0
2018-Feb-21 05:31N 38°02' E 023°31'0 0.0
2018-Feb-21 05:01N 38°02' E 023°31'0 0.0
2018-Feb-21 04:31N 38°02' E 023°31'0 0.0
2018-Feb-21 04:01N 38°02' E 023°31'0 0.0
2018-Feb-21 03:30N 38°02' E 023°31'0 0.0
2018-Feb-21 03:00N 38°02' E 023°31'0 0.0
2018-Feb-21 02:31N 38°02' E 023°31'0 0.0
2018-Feb-21 02:01N 38°02' E 023°31'0 0.0
2018-Feb-21 01:31N 38°02' E 023°31'0 0.0
2018-Feb-21 01:01N 38°02' E 023°31'0 0.0
2018-Feb-21 00:31N 38°02' E 023°31'0 0.0
2018-Feb-21 00:00N 38°02' E 023°31'0 0.0
2018-Feb-20 23:31N 38°02' E 023°31'0 0.0
2018-Feb-20 23:01N 38°02' E 023°31'0 0.0
2018-Feb-20 22:31N 38°02' E 023°31'0 0.0
2018-Feb-20 22:00N 38°02' E 023°31'0 0.0
2018-Feb-20 21:30N 38°02' E 023°31'0 0.0
2018-Feb-20 21:01N 38°02' E 023°31'0 0.0
2018-Feb-20 20:31N 38°02' E 023°31'0 0.0
2018-Feb-20 20:00N 38°02' E 023°31'0 0.0
2018-Feb-20 19:31N 38°02' E 023°31'0 0.0
2018-Feb-20 19:00N 38°02' E 023°31'0 0.0
2018-Feb-20 18:30N 38°02' E 023°31'0 0.0
2018-Feb-20 18:01N 38°02' E 023°31'0 0.0
2018-Feb-20 17:31N 38°02' E 023°31'0 0.0
2018-Feb-20 17:01N 38°02' E 023°31'0 0.0
2018-Feb-20 16:31N 38°02' E 023°31'0 0.0
2018-Feb-20 16:01N 38°02' E 023°31'0 0.0
2018-Feb-20 15:30N 38°02' E 023°31'0 0.0
2018-Feb-20 15:00N 38°02' E 023°31'0 0.0
2018-Feb-20 14:31N 38°02' E 023°31'0 0.0
2018-Feb-20 14:01N 38°02' E 023°31'0 0.0
2018-Feb-20 13:30N 38°02' E 023°31'0 0.0
2018-Feb-20 13:01N 38°02' E 023°31'0 0.0
2018-Feb-20 12:31N 38°02' E 023°31'0 0.0
2018-Feb-20 12:01N 38°02' E 023°31'0 0.0
2018-Feb-20 11:30N 38°02' E 023°31'0 0.0
2018-Feb-20 11:01N 38°02' E 023°31'0 0.0
2018-Feb-20 10:30N 38°02' E 023°31'0 0.0
2018-Feb-20 10:01N 38°02' E 023°31'0 0.0
2018-Feb-20 09:31N 38°02' E 023°31'0 0.0
2018-Feb-20 09:00N 38°02' E 023°31'0 0.0
2018-Feb-20 08:31N 38°02' E 023°31'0 0.0
2018-Feb-20 08:01N 38°02' E 023°31'0 0.0
2018-Feb-20 07:31N 38°02' E 023°31'0 0.0
2018-Feb-20 07:00N 38°02' E 023°31'0 0.0
2018-Feb-20 06:31N 38°02' E 023°31'0 0.0
2018-Feb-20 06:00N 38°02' E 023°31'0 0.0
2018-Feb-20 05:31N 38°02' E 023°31'0 0.0
2018-Feb-20 05:01N 38°02' E 023°31'0 0.0
2018-Feb-20 04:31N 38°02' E 023°31'0 0.0
2018-Feb-20 04:01N 38°02' E 023°31'0 0.0
2018-Feb-20 03:31N 38°02' E 023°31'0 0.0
2018-Feb-20 03:00N 38°02' E 023°31'0 0.0
2018-Feb-20 02:31N 38°02' E 023°31'0 0.0
2018-Feb-20 02:01N 38°02' E 023°31'0 0.0
2018-Feb-20 01:31N 38°02' E 023°31'0 0.0
2018-Feb-20 01:01N 38°02' E 023°31'0 0.0
2018-Feb-20 00:31N 38°02' E 023°31'0 0.0
2018-Feb-20 00:01N 38°02' E 023°31'0 0.0
2018-Feb-19 23:30N 38°02' E 023°31'0 0.0
2018-Feb-19 23:00N 38°02' E 023°31'0 0.0
2018-Feb-19 22:30N 38°02' E 023°31'0 0.0
2018-Feb-19 22:00N 38°02' E 023°31'0 0.0
2018-Feb-19 21:31N 38°02' E 023°31'0 0.0
2018-Feb-19 21:01N 38°02' E 023°31'0 0.0
2018-Feb-19 20:31N 38°02' E 023°31'0 0.0
2018-Feb-19 20:01N 38°02' E 023°31'0 0.0
2018-Feb-19 19:30N 38°02' E 023°31'0 0.0
2018-Feb-19 19:00N 38°02' E 023°31'0 0.0
2018-Feb-19 18:31N 38°02' E 023°31'0 0.0
2018-Feb-19 18:01N 38°02' E 023°31'0 0.0
2018-Feb-19 17:31N 38°02' E 023°31'0 0.0
2018-Feb-19 17:00N 38°02' E 023°31'0 0.0
2018-Feb-19 16:31N 38°02' E 023°31'0 0.0
2018-Feb-19 16:01N 38°02' E 023°31'0 0.0
2018-Feb-19 15:31N 38°02' E 023°31'0 0.0
2018-Feb-19 15:01N 38°02' E 023°31'0 0.0
2018-Feb-19 14:31N 38°02' E 023°31'0 0.0
2018-Feb-19 14:01N 38°02' E 023°31'0 0.0
2018-Feb-19 13:31N 38°02' E 023°31'0 0.0
2018-Feb-19 13:01N 38°02' E 023°31'0 0.0
2018-Feb-19 12:31N 38°02' E 023°31'0 0.0
2018-Feb-19 12:01N 38°02' E 023°31'0 0.0
2018-Feb-19 11:31N 38°02' E 023°31'0 0.0
2018-Feb-19 11:01N 38°02' E 023°31'0 0.0
2018-Feb-19 10:31N 38°02' E 023°31'0 0.0
2018-Feb-19 10:00N 38°02' E 023°31'0 0.0
2018-Feb-19 09:31N 38°02' E 023°31'0 0.0
2018-Feb-19 09:01N 38°02' E 023°31'0 0.0
2018-Feb-19 08:30N 38°02' E 023°31'2 3.3
2018-Feb-19 08:00N 38°01' E 023°32'4 7.8
2018-Feb-19 07:31N 37°57' E 023°34'2 4.8
2018-Feb-19 07:00N 37°55' E 023°33'0 0.0
2018-Feb-19 06:31N 37°55' E 023°33'0 0.0
2018-Feb-19 06:00N 37°55' E 023°33'0 0.0
2018-Feb-19 05:30N 37°55' E 023°33'2 4.9
2018-Feb-19 05:00N 37°57' E 023°35'4 7.2
2018-Feb-19 04:30N 37°60' E 023°33'3 5.4
2018-Feb-19 04:01N 38°02' E 023°31'0 0.0
2018-Feb-19 03:31N 38°02' E 023°31'0 0.0
2018-Feb-19 03:01N 38°02' E 023°31'0 0.0
2018-Feb-19 02:30N 38°02' E 023°31'0 0.0
2018-Feb-19 02:01N 38°02' E 023°31'0 0.0
2018-Feb-19 01:30N 38°02' E 023°31'0 0.0
2018-Feb-19 01:00N 38°02' E 023°31'0 0.0
2018-Feb-19 00:30N 38°02' E 023°31'0 0.0
2018-Feb-19 00:00N 38°02' E 023°31'0 0.0
2018-Feb-18 23:30N 38°02' E 023°31'0 0.0
2018-Feb-18 23:01N 38°02' E 023°31'0 0.0
2018-Feb-18 22:31N 38°02' E 023°31'0 0.0
2018-Feb-18 22:01N 38°02' E 023°31'0 0.0
2018-Feb-18 21:31N 38°02' E 023°31'0 0.0
2018-Feb-18 21:01N 38°02' E 023°31'0 0.0
2018-Feb-18 20:31N 38°02' E 023°31'0 0.0
2018-Feb-18 20:01N 38°02' E 023°31'0 0.0
2018-Feb-18 19:30N 38°02' E 023°31'0 0.0
2018-Feb-18 19:01N 38°02' E 023°31'0 0.0
2018-Feb-18 18:31N 38°02' E 023°31'0 0.0
2018-Feb-18 18:00N 38°02' E 023°31'0 0.0
2018-Feb-18 17:31N 38°02' E 023°31'0 0.0
2018-Feb-18 17:00N 38°02' E 023°31'0 0.0
2018-Feb-18 16:30N 38°02' E 023°31'0 0.0
2018-Feb-18 16:01N 38°02' E 023°31'0 0.0
2018-Feb-18 15:31N 38°02' E 023°31'0 0.0
2018-Feb-18 15:00N 38°02' E 023°31'0 0.0
2018-Feb-18 14:31N 38°02' E 023°31'0 0.0
2018-Feb-18 14:01N 38°02' E 023°31'0 0.0
2018-Feb-18 13:31N 38°02' E 023°31'0 0.0
2018-Feb-18 13:01N 38°02' E 023°31'0 0.0
2018-Feb-18 12:30N 38°02' E 023°31'0 0.0
2018-Feb-18 12:01N 38°02' E 023°31'0 0.0
2018-Feb-18 11:30N 38°02' E 023°31'0 0.0
2018-Feb-18 11:01N 38°02' E 023°31'0 0.0
2018-Feb-18 10:31N 38°02' E 023°31'0 0.0
2018-Feb-18 10:00N 38°02' E 023°31'0 0.0
2018-Feb-18 09:31N 38°02' E 023°31'0 0.0
2018-Feb-18 09:01N 38°02' E 023°31'0 0.0
2018-Feb-18 08:30N 38°02' E 023°31'0 0.0
2018-Feb-18 08:00N 38°02' E 023°31'0 0.0
2018-Feb-18 07:31N 38°02' E 023°31'0 0.0
2018-Feb-18 07:01N 38°02' E 023°31'4 7.2
2018-Feb-18 06:30N 37°59' E 023°33'3 6.1
2018-Feb-18 06:01N 37°56' E 023°34'1 2.3
2018-Feb-18 05:31N 37°55' E 023°33'0 0.0
2018-Feb-18 05:01N 37°55' E 023°33'0 0.0
2018-Feb-18 04:31N 37°55' E 023°33'0 0.7
2018-Feb-18 04:00N 37°56' E 023°33'0 0.0
2018-Feb-18 03:30N 37°56' E 023°33'0 0.0
2018-Feb-18 03:01N 37°56' E 023°33'0 0.0
2018-Feb-18 02:30N 37°56' E 023°33'0 0.0
2018-Feb-18 02:01N 37°56' E 023°33'0 0.0
2018-Feb-18 01:30N 37°56' E 023°33'0 0.0
2018-Feb-18 01:01N 37°56' E 023°33'0 0.0
2018-Feb-18 00:30N 37°56' E 023°33'0 0.0
2018-Feb-18 00:01N 37°56' E 023°33'0 0.0
2018-Feb-17 23:30N 37°56' E 023°33'0 0.0
2018-Feb-17 23:01N 37°56' E 023°33'0 0.1
2018-Feb-17 22:30N 37°56' E 023°33'0 0.0
2018-Feb-17 22:00N 37°56' E 023°33'0 0.0
2018-Feb-17 21:31N 37°56' E 023°33'0 0.0
2018-Feb-17 21:00N 37°56' E 023°33'0 0.0
2018-Feb-17 20:31N 37°56' E 023°33'0 0.7
2018-Feb-17 20:01N 37°55' E 023°33'2 4.7
2018-Feb-17 19:30N 37°53' E 023°32'0 0.1
2018-Feb-17 19:01N 37°53' E 023°32'0 0.0
2018-Feb-17 18:30N 37°53' E 023°32'0 0.0
2018-Feb-17 18:00N 37°53' E 023°32'0 0.0
2018-Feb-17 17:31N 37°53' E 023°32'0 0.0
2018-Feb-17 17:00N 37°53' E 023°32'2 3.8
2018-Feb-17 16:31N 37°55' E 023°33'3 5.4
2018-Feb-17 16:01N 37°57' E 023°33'4 8.0
2018-Feb-17 15:31N 38°01' E 023°32'1 2.6
2018-Feb-17 15:00N 38°03' E 023°31'0 0.0
2018-Feb-17 14:30N 38°03' E 023°31'0 0.0
2018-Feb-17 14:01N 38°03' E 023°31'0 0.0
2018-Feb-17 13:31N 38°03' E 023°31'0 0.0
2018-Feb-17 13:00N 38°03' E 023°31'0 0.0
2018-Feb-17 12:31N 38°03' E 023°31'0 0.0
2018-Feb-17 12:01N 38°03' E 023°31'0 0.0
2018-Feb-17 11:31N 38°03' E 023°31'0 0.0
2018-Feb-17 11:00N 38°03' E 023°31'0 0.0
2018-Feb-17 10:31N 38°03' E 023°31'0 0.0
2018-Feb-17 10:01N 38°03' E 023°31'0 0.0
2018-Feb-17 09:31N 38°03' E 023°31'0 0.0
2018-Feb-17 09:01N 38°03' E 023°31'0 0.0
2018-Feb-17 08:30N 38°03' E 023°31'0 0.0
2018-Feb-17 08:00N 38°03' E 023°31'0 0.0
2018-Feb-17 07:31N 38°03' E 023°31'0 0.0
2018-Feb-17 07:01N 38°03' E 023°31'0 0.0
2018-Feb-17 06:31N 38°03' E 023°31'0 0.0
2018-Feb-17 06:01N 38°03' E 023°31'0 0.0
2018-Feb-17 05:31N 38°03' E 023°31'0 0.0
2018-Feb-17 05:01N 38°03' E 023°31'0 0.0
2018-Feb-17 04:30N 38°03' E 023°31'0 0.0
2018-Feb-17 04:01N 38°03' E 023°31'0 0.0
2018-Feb-17 03:31N 38°03' E 023°31'0 0.0
2018-Feb-17 03:01N 38°03' E 023°31'0 0.0
2018-Feb-17 02:30N 38°03' E 023°31'0 0.0
2018-Feb-17 02:00N 38°03' E 023°31'0 0.0
2018-Feb-17 01:31N 38°03' E 023°31'0 0.0
2018-Feb-17 01:01N 38°03' E 023°31'0 0.0
2018-Feb-17 00:30N 38°03' E 023°31'0 0.0
2018-Feb-17 00:01N 38°03' E 023°31'0 0.0
2018-Feb-16 23:31N 38°03' E 023°31'0 0.0
2018-Feb-16 23:01N 38°03' E 023°31'0 0.0
2018-Feb-16 22:31N 38°03' E 023°31'0 0.0
2018-Feb-16 22:01N 38°03' E 023°31'0 0.0
2018-Feb-16 21:31N 38°03' E 023°31'0 0.0
2018-Feb-16 21:01N 38°03' E 023°31'0 0.0
2018-Feb-16 20:31N 38°03' E 023°31'0 0.6
2018-Feb-16 20:01N 38°02' E 023°32'2 3.9
2018-Feb-16 19:31N 38°00' E 023°32'0 0.1
2018-Feb-16 19:01N 38°00' E 023°32'0 0.0
2018-Feb-16 18:30N 38°00' E 023°32'0 0.0
2018-Feb-16 18:00N 38°00' E 023°32'1 1.3
2018-Feb-16 17:31N 38°01' E 023°33'2 4.8
2018-Feb-16 17:00N 38°02' E 023°36'0 0.0
2018-Feb-16 16:30N 38°02' E 023°36'0 0.0
2018-Feb-16 16:01N 38°02' E 023°36'0 0.0
2018-Feb-16 15:30N 38°02' E 023°36'0 0.0
2018-Feb-16 15:01N 38°02' E 023°36'0 0.0
2018-Feb-16 14:30N 38°02' E 023°36'0 0.0
2018-Feb-16 14:00N 38°02' E 023°36'1 1.6
2018-Feb-16 13:31N 38°01' E 023°35'0 0.4
2018-Feb-16 13:01N 38°01' E 023°35'0 0.1
2018-Feb-16 12:31N 38°01' E 023°35'0 0.0
2018-Feb-16 12:01N 38°01' E 023°35'0 0.0
2018-Feb-16 11:30N 38°01' E 023°35'0 0.0
2018-Feb-16 11:01N 38°01' E 023°35'0 0.0
2018-Feb-16 10:31N 38°01' E 023°35'0 0.0
2018-Feb-16 10:00N 38°01' E 023°35'0 0.0
2018-Feb-16 09:31N 38°01' E 023°35'0 0.0
2018-Feb-16 09:00N 38°01' E 023°35'0 0.0
2018-Feb-16 08:30N 38°01' E 023°35'0 0.0
2018-Feb-16 08:00N 38°01' E 023°35'0 0.0
2018-Feb-16 07:30N 38°01' E 023°35'0 0.0
2018-Feb-16 07:00N 38°01' E 023°35'0 0.0
2018-Feb-16 06:30N 38°01' E 023°35'2 3.7
2018-Feb-16 06:00N 38°00' E 023°33'3 6.2
2018-Feb-16 05:31N 37°57' E 023°34'3 6.3
2018-Feb-16 05:01N 37°54' E 023°34'3 6.7
2018-Feb-16 04:31N 37°51' E 023°32'0 0.0
2018-Feb-16 04:01N 37°51' E 023°32'0 0.0
2018-Feb-16 03:31N 37°51' E 023°32'0 0.0
2018-Feb-16 03:01N 37°51' E 023°32'0 0.0
2018-Feb-16 02:31N 37°51' E 023°32'0 0.0
2018-Feb-16 02:00N 37°51' E 023°32'0 0.0
2018-Feb-16 01:31N 37°51' E 023°32'0 0.0
2018-Feb-16 01:01N 37°51' E 023°32'0 0.0
2018-Feb-16 00:31N 37°51' E 023°32'0 0.0
2018-Feb-16 00:01N 37°51' E 023°32'0 0.1
2018-Feb-15 23:31N 37°51' E 023°32'1 1.8
2018-Feb-15 23:00N 37°50' E 023°32'1 2.8
2018-Feb-15 22:31N 37°50' E 023°30'4 8.2
2018-Feb-15 22:00N 37°52' E 023°26'4 7.3
2018-Feb-15 21:30N 37°55' E 023°23'3 7.0
2018-Feb-15 21:01N 37°58' E 023°25'3 6.1
2018-Feb-15 20:30N 38°01' E 023°28'3 6.5
2018-Feb-15 20:00N 38°02' E 023°31'0 0.0
2018-Feb-15 19:31N 38°02' E 023°31'0 0.0
2018-Feb-15 19:01N 38°02' E 023°31'0 0.0
2018-Feb-15 18:31N 38°02' E 023°31'0 0.0
2018-Feb-15 18:00N 38°02' E 023°31'0 0.0
2018-Feb-15 17:30N 38°02' E 023°31'0 0.0
2018-Feb-15 17:01N 38°02' E 023°31'0 0.0
2018-Feb-15 16:31N 38°02' E 023°31'0 0.0
2018-Feb-15 16:01N 38°02' E 023°31'0 0.0
2018-Feb-15 15:31N 38°02' E 023°31'0 0.0
2018-Feb-15 15:00N 38°02' E 023°31'0 0.0
2018-Feb-15 14:30N 38°02' E 023°31'0 0.0
2018-Feb-15 14:01N 38°02' E 023°31'0 0.0
2018-Feb-15 13:31N 38°02' E 023°31'0 0.0
2018-Feb-15 13:01N 38°02' E 023°31'0 0.0
2018-Feb-15 12:30N 38°02' E 023°31'0 0.0
2018-Feb-15 12:01N 38°02' E 023°31'0 0.0
2018-Feb-15 11:31N 38°02' E 023°31'0 0.0
2018-Feb-15 11:01N 38°02' E 023°31'0 0.0
2018-Feb-15 10:31N 38°02' E 023°31'0 0.0
2018-Feb-15 10:01N 38°02' E 023°31'0 0.0
2018-Feb-15 09:30N 38°02' E 023°31'1 2.5
2018-Feb-15 09:00N 38°01' E 023°32'0 0.1
2018-Feb-15 08:30N 38°01' E 023°32'0 0.0
2018-Feb-15 08:00N 38°01' E 023°32'0 0.1
2018-Feb-15 07:31N 38°01' E 023°32'0 0.0
2018-Feb-15 07:01N 38°01' E 023°32'0 0.1
2018-Feb-15 06:30N 38°01' E 023°32'0 0.0
2018-Feb-15 06:00N 38°01' E 023°32'1 1.7
2018-Feb-15 05:31N 38°02' E 023°33'2 3.1
2018-Feb-15 05:00N 38°02' E 023°35'0 0.0
2018-Feb-15 04:31N 38°02' E 023°35'0 0.1
2018-Feb-15 04:00N 38°02' E 023°35'0 0.1
2018-Feb-15 03:28N 38°02' E 023°35'0 0.1
2018-Feb-15 03:01N 38°02' E 023°35'1 1.5
2018-Feb-15 02:30N 38°02' E 023°36'0 0.0
2018-Feb-15 02:00N 38°02' E 023°36'0 0.0
2018-Feb-15 01:30N 38°02' E 023°36'0 0.0
2018-Feb-15 01:00N 38°02' E 023°36'0 0.0
2018-Feb-15 00:30N 38°02' E 023°36'0 0.0
2018-Feb-15 00:00N 38°02' E 023°36'1 1.4
2018-Feb-14 23:30N 38°02' E 023°35'0 0.9
2018-Feb-14 23:00N 38°01' E 023°34'0 0.0
2018-Feb-14 22:31N 38°01' E 023°34'0 0.0
2018-Feb-14 22:00N 38°01' E 023°34'0 0.1
2018-Feb-14 21:30N 38°01' E 023°34'0 0.4
2018-Feb-14 21:00N 38°01' E 023°34'2 5.0
2018-Feb-14 20:30N 38°02' E 023°31'0 0.0
2018-Feb-14 20:01N 38°02' E 023°31'0 0.0
2018-Feb-14 19:30N 38°02' E 023°31'0 0.0
2018-Feb-14 19:00N 38°02' E 023°31'0 0.0
2018-Feb-14 18:30N 38°02' E 023°31'0 0.0
2018-Feb-14 18:00N 38°02' E 023°31'0 0.0
2018-Feb-14 17:31N 38°02' E 023°31'0 0.0
2018-Feb-14 16:59N 38°02' E 023°31'0 0.0
2018-Feb-14 16:30N 38°02' E 023°31'0 0.0
2018-Feb-14 16:00N 38°02' E 023°31'0 0.0
2018-Feb-14 15:31N 38°02' E 023°31'0 0.0
2018-Feb-14 15:00N 38°02' E 023°31'0 0.0
2018-Feb-14 14:31N 38°02' E 023°31'0 0.0
2018-Feb-14 14:01N 38°02' E 023°31'0 0.0
2018-Feb-14 13:31N 38°02' E 023°31'0 0.0
2018-Feb-14 13:00N 38°02' E 023°31'0 0.0
2018-Feb-14 12:30N 38°02' E 023°31'0 0.0
2018-Feb-14 12:00N 38°02' E 023°31'0 0.0
2018-Feb-14 11:31N 38°02' E 023°31'0 0.0
2018-Feb-14 11:01N 38°02' E 023°31'0 0.0
2018-Feb-14 10:31N 38°02' E 023°31'0 0.0
2018-Feb-14 10:00N 38°02' E 023°31'0 0.0
2018-Feb-14 09:30N 38°02' E 023°31'0 0.0
2018-Feb-14 09:01N 38°02' E 023°31'0 0.0
2018-Feb-14 08:30N 38°02' E 023°31'0 0.0
2018-Feb-14 08:00N 38°02' E 023°31'0 0.1
2018-Feb-14 07:31N 38°02' E 023°31'3 5.8
2018-Feb-14 07:00N 37°60' E 023°33'3 6.7
2018-Feb-14 06:30N 37°57' E 023°35'1 2.8
2018-Feb-14 06:01N 37°56' E 023°34'0 0.0
2018-Feb-14 05:31N 37°56' E 023°34'0 0.0
2018-Feb-14 05:01N 37°56' E 023°34'0 0.1
2018-Feb-14 04:30N 37°56' E 023°34'0 0.0
2018-Feb-14 04:01N 37°56' E 023°34'0 0.0
2018-Feb-14 03:31N 37°56' E 023°34'0 0.0
2018-Feb-14 03:01N 37°56' E 023°34'0 0.0
2018-Feb-14 02:31N 37°56' E 023°34'0 0.0
2018-Feb-14 02:01N 37°56' E 023°34'0 0.0
2018-Feb-14 01:31N 37°56' E 023°34'0 0.0
2018-Feb-14 01:00N 37°56' E 023°34'0 0.0
2018-Feb-14 00:30N 37°56' E 023°34'0 0.0
2018-Feb-14 00:01N 37°56' E 023°34'0 0.0
2018-Feb-13 23:31N 37°56' E 023°34'0 0.1
2018-Feb-13 23:01N 37°56' E 023°34'0 0.4
2018-Feb-13 22:31N 37°56' E 023°34'2 5.0
2018-Feb-13 22:01N 37°58' E 023°36'0 0.0
2018-Feb-13 21:31N 37°58' E 023°36'0 0.0
2018-Feb-13 21:00N 37°58' E 023°36'0 0.0
2018-Feb-13 20:30N 37°58' E 023°36'0 0.0
2018-Feb-13 20:01N 37°58' E 023°36'0 0.7
2018-Feb-13 19:30N 37°57' E 023°36'2 4.7
2018-Feb-13 19:01N 37°56' E 023°34'0 0.0
2018-Feb-13 18:30N 37°56' E 023°34'  
Track history (hours):
 
Tides and Currents Weather Stations Pressure Air Temp Water Temp Dewpoint Dewpoint Depression Visibility Wind Speed Wind Dir Waves Ship Positions

Accord

Last reported at 2018-Feb-23 18:30 UTC. Time now 2018-Feb-23 18:44 UTC.
Position N 38°02' E 023°31'.

Length 77 m; draft 4.4 m.

Type: Tanker. MMSI: 239998600.

Date/timePositionNaut miles runAvg speedWind from/ knotsBaromVisibWave heightAir tempDewpointWater temp
2018-Feb-23 18:30N 38°02' E 023°31'0 0.0
2018-Feb-23 18:00N 38°02' E 023°31'0 0.0
2018-Feb-23 17:30N 38°02' E 023°31'0 0.0
2018-Feb-23 17:01N 38°02' E 023°31'0 0.0
2018-Feb-23 16:30N 38°02' E 023°31'0 0.3
2018-Feb-23 16:00N 38°02' E 023°32'4 8.2
2018-Feb-23 15:30N 37°58' E 023°33'3 6.6
2018-Feb-23 15:00N 37°55' E 023°34'2 3.8
2018-Feb-23 14:30N 37°53' E 023°34'0 0.1
2018-Feb-23 14:00N 37°53' E 023°34'0 0.0
2018-Feb-23 13:30N 37°53' E 023°34'0 0.0
2018-Feb-23 13:00N 37°53' E 023°34'0 0.1
2018-Feb-23 12:30N 37°53' E 023°34'2 3.3
2018-Feb-23 12:00N 37°52' E 023°32'1 2.2
2018-Feb-23 11:30N 37°51' E 023°31'0 0.1
2018-Feb-23 11:00N 37°51' E 023°31'0 0.1
2018-Feb-23 10:30N 37°51' E 023°31'0 0.2
2018-Feb-23 10:00N 37°51' E 023°31'0 0.1
2018-Feb-23 09:30N 37°51' E 023°31'0 0.1
2018-Feb-23 09:00N 37°51' E 023°31'0 0.1
2018-Feb-23 08:30N 37°51' E 023°31'0 0.0
2018-Feb-23 08:00N 37°51' E 023°31'0 0.0
2018-Feb-23 07:30N 37°51' E 023°31'0 0.0
2018-Feb-23 07:00N 37°51' E 023°31'0 0.4
2018-Feb-23 06:30N 37°51' E 023°31'4 7.8
2018-Feb-23 06:00N 37°55' E 023°33'3 5.5
2018-Feb-23 05:30N 37°57' E 023°33'4 7.7
2018-Feb-23 05:00N 38°01' E 023°32'1 3.0
2018-Feb-23 04:30N 38°02' E 023°31'0 0.0
2018-Feb-23 04:00N 38°02' E 023°31'0 0.0
2018-Feb-23 03:30N 38°02' E 023°31'0 0.0
2018-Feb-23 03:00N 38°02' E 023°31'0 0.0
2018-Feb-23 02:31N 38°02' E 023°31'0 0.0
2018-Feb-23 02:01N 38°02' E 023°31'0 0.0
2018-Feb-23 01:30N 38°02' E 023°31'0 0.0
2018-Feb-23 01:01N 38°02' E 023°31'0 0.0
2018-Feb-23 00:31N 38°02' E 023°31'0 0.0
2018-Feb-23 00:01N 38°02' E 023°31'0 0.0
2018-Feb-22 23:31N 38°02' E 023°31'0 0.0
2018-Feb-22 23:00N 38°02' E 023°31'0 0.0
2018-Feb-22 22:30N 38°02' E 023°31'0 0.0
2018-Feb-22 22:01N 38°02' E 023°31'0 0.0
2018-Feb-22 21:31N 38°02' E 023°31'0 1.0
2018-Feb-22 21:00N 38°02' E 023°32'1 2.3
2018-Feb-22 20:30N 38°01' E 023°32'0 0.0
2018-Feb-22 20:00N 38°01' E 023°32'0 0.0
2018-Feb-22 19:30N 38°01' E 023°32'0 0.0
2018-Feb-22 19:00N 38°01' E 023°32'0 0.0
2018-Feb-22 18:30N 38°01' E 023°32'1 2.9
2018-Feb-22 18:00N 38°01' E 023°34'2 3.2
2018-Feb-22 17:31N 38°02' E 023°36'0 0.0
2018-Feb-22 17:00N 38°02' E 023°36'0 0.0
2018-Feb-22 16:31N 38°02' E 023°36'0 0.0
2018-Feb-22 16:00N 38°02' E 023°36'0 0.0
2018-Feb-22 15:30N 38°02' E 023°36'0 0.0
2018-Feb-22 15:00N 38°02' E 023°36'1 1.6
2018-Feb-22 14:30N 38°01' E 023°35'2 4.8
2018-Feb-22 14:00N 37°59' E 023°33'3 6.8
2018-Feb-22 13:30N 37°56' E 023°35'4 7.7
2018-Feb-22 13:00N 37°53' E 023°32'2 3.5
2018-Feb-22 12:30N 37°52' E 023°31'0 0.0
2018-Feb-22 12:00N 37°52' E 023°31'0 0.0
2018-Feb-22 11:30N 37°52' E 023°31'0 0.0
2018-Feb-22 11:00N 37°52' E 023°31'0 0.0
2018-Feb-22 10:30N 37°52' E 023°31'0 0.4
2018-Feb-22 10:00N 37°52' E 023°31'4 8.1
2018-Feb-22 09:30N 37°55' E 023°33'3 5.3
2018-Feb-22 09:00N 37°58' E 023°33'4 8.1
2018-Feb-22 08:30N 38°02' E 023°32'1 1.4
2018-Feb-22 08:00N 38°02' E 023°31'0 0.0
2018-Feb-22 07:30N 38°02' E 023°31'0 0.0
2018-Feb-22 07:00N 38°02' E 023°31'0 0.0
2018-Feb-22 06:30N 38°02' E 023°31'0 0.0
2018-Feb-22 06:00N 38°02' E 023°31'0 0.0
2018-Feb-22 05:30N 38°02' E 023°31'0 0.0
2018-Feb-22 05:00N 38°02' E 023°31'0 0.0
2018-Feb-22 04:30N 38°02' E 023°31'0 0.0
2018-Feb-22 04:00N 38°02' E 023°31'0 0.0
2018-Feb-22 03:30N 38°02' E 023°31'0 0.0
2018-Feb-22 03:00N 38°02' E 023°31'0 0.0
2018-Feb-22 02:30N 38°02' E 023°31'0 0.0
2018-Feb-22 02:00N 38°02' E 023°31'0 0.0
2018-Feb-22 01:30N 38°02' E 023°31'0 0.0
2018-Feb-22 01:00N 38°02' E 023°31'0 0.0
2018-Feb-22 00:31N 38°02' E 023°31'0 0.0
2018-Feb-22 00:00N 38°02' E 023°31'0 0.0
2018-Feb-21 23:30N 38°02' E 023°31'0 0.0
2018-Feb-21 23:00N 38°02' E 023°31'0 0.0
2018-Feb-21 22:30N 38°02' E 023°31'0 0.0
2018-Feb-21 22:01N 38°02' E 023°31'0 0.0
2018-Feb-21 21:30N 38°02' E 023°31'0 0.0
2018-Feb-21 21:00N 38°02' E 023°31'0 0.0
2018-Feb-21 20:30N 38°02' E 023°31'0 0.0
2018-Feb-21 20:01N 38°02' E 023°31'0 0.0
2018-Feb-21 19:30N 38°02' E 023°31'0 0.0
2018-Feb-21 19:00N 38°02' E 023°31'0 0.0
2018-Feb-21 18:31N 38°02' E 023°31'0 0.0
2018-Feb-21 18:00N 38°02' E 023°31'0 0.0
2018-Feb-21 17:30N 38°02' E 023°31'0 0.0
2018-Feb-21 17:00N 38°02' E 023°31'0 0.0
2018-Feb-21 16:30N 38°02' E 023°31'0 0.0
2018-Feb-21 16:00N 38°02' E 023°31'0 0.0
2018-Feb-21 15:30N 38°02' E 023°31'0 0.0
2018-Feb-21 15:01N 38°02' E 023°31'0 0.0
2018-Feb-21 14:30N 38°02' E 023°31'0 0.0
2018-Feb-21 14:01N 38°02' E 023°31'0 0.0
2018-Feb-21 13:30N 38°02' E 023°31'0 0.0
2018-Feb-21 13:00N 38°02' E 023°31'0 0.0
2018-Feb-21 12:30N 38°02' E 023°31'0 0.0
2018-Feb-21 12:00N 38°02' E 023°31'1 2.5
2018-Feb-21 11:30N 38°02' E 023°33'2 4.7
2018-Feb-21 11:00N 38°02' E 023°36'0 0.0
2018-Feb-21 10:30N 38°02' E 023°36'0 0.0
2018-Feb-21 10:00N 38°02' E 023°36'0 0.0
2018-Feb-21 09:30N 38°02' E 023°36'0 0.0
2018-Feb-21 09:00N 38°02' E 023°36'0 0.0
2018-Feb-21 08:30N 38°02' E 023°36'0 0.1
2018-Feb-21 08:01N 38°02' E 023°36'3 6.5
2018-Feb-21 07:31N 38°02' E 023°32'0 0.8
2018-Feb-21 07:01N 38°02' E 023°31'0 0.0
2018-Feb-21 06:30N 38°02' E 023°31'0 0.0
2018-Feb-21 06:01N 38°02' E 023°31'0 0.0
2018-Feb-21 05:31N 38°02' E 023°31'0 0.0
2018-Feb-21 05:01N 38°02' E 023°31'0 0.0
2018-Feb-21 04:31N 38°02' E 023°31'0 0.0
2018-Feb-21 04:01N 38°02' E 023°31'0 0.0
2018-Feb-21 03:30N 38°02' E 023°31'0 0.0
2018-Feb-21 03:00N 38°02' E 023°31'0 0.0
2018-Feb-21 02:31N 38°02' E 023°31'0 0.0
2018-Feb-21 02:01N 38°02' E 023°31'0 0.0
2018-Feb-21 01:31N 38°02' E 023°31'0 0.0
2018-Feb-21 01:01N 38°02' E 023°31'0 0.0
2018-Feb-21 00:31N 38°02' E 023°31'0 0.0
2018-Feb-21 00:00N 38°02' E 023°31'0 0.0
2018-Feb-20 23:31N 38°02' E 023°31'0 0.0
2018-Feb-20 23:01N 38°02' E 023°31'0 0.0
2018-Feb-20 22:31N 38°02' E 023°31'0 0.0
2018-Feb-20 22:00N 38°02' E 023°31'0 0.0
2018-Feb-20 21:30N 38°02' E 023°31'0 0.0
2018-Feb-20 21:01N 38°02' E 023°31'0 0.0
2018-Feb-20 20:31N 38°02' E 023°31'0 0.0
2018-Feb-20 20:00N 38°02' E 023°31'0 0.0
2018-Feb-20 19:31N 38°02' E 023°31'0 0.0
2018-Feb-20 19:00N 38°02' E 023°31'0 0.0
2018-Feb-20 18:30N 38°02' E 023°31'0 0.0
2018-Feb-20 18:01N 38°02' E 023°31'0 0.0
2018-Feb-20 17:31N 38°02' E 023°31'0 0.0
2018-Feb-20 17:01N 38°02' E 023°31'0 0.0
2018-Feb-20 16:31N 38°02' E 023°31'0 0.0
2018-Feb-20 16:01N 38°02' E 023°31'0 0.0
2018-Feb-20 15:30N 38°02' E 023°31'0 0.0
2018-Feb-20 15:00N 38°02' E 023°31'0 0.0
2018-Feb-20 14:31N 38°02' E 023°31'0 0.0
2018-Feb-20 14:01N 38°02' E 023°31'0 0.0
2018-Feb-20 13:30N 38°02' E 023°31'0 0.0
2018-Feb-20 13:01N 38°02' E 023°31'0 0.0
2018-Feb-20 12:31N 38°02' E 023°31'0 0.0
2018-Feb-20 12:01N 38°02' E 023°31'0 0.0
2018-Feb-20 11:30N 38°02' E 023°31'0 0.0
2018-Feb-20 11:01N 38°02' E 023°31'0 0.0
2018-Feb-20 10:30N 38°02' E 023°31'0 0.0
2018-Feb-20 10:01N 38°02' E 023°31'0 0.0
2018-Feb-20 09:31N 38°02' E 023°31'0 0.0
2018-Feb-20 09:00N 38°02' E 023°31'0 0.0
2018-Feb-20 08:31N 38°02' E 023°31'0 0.0
2018-Feb-20 08:01N 38°02' E 023°31'0 0.0
2018-Feb-20 07:31N 38°02' E 023°31'0 0.0
2018-Feb-20 07:00N 38°02' E 023°31'0 0.0
2018-Feb-20 06:31N 38°02' E 023°31'0 0.0
2018-Feb-20 06:00N 38°02' E 023°31'0 0.0
2018-Feb-20 05:31N 38°02' E 023°31'0 0.0
2018-Feb-20 05:01N 38°02' E 023°31'0 0.0
2018-Feb-20 04:31N 38°02' E 023°31'0 0.0
2018-Feb-20 04:01N 38°02' E 023°31'0 0.0
2018-Feb-20 03:31N 38°02' E 023°31'0 0.0
2018-Feb-20 03:00N 38°02' E 023°31'0 0.0
2018-Feb-20 02:31N 38°02' E 023°31'0 0.0
2018-Feb-20 02:01N 38°02' E 023°31'0 0.0
2018-Feb-20 01:31N 38°02' E 023°31'0 0.0
2018-Feb-20 01:01N 38°02' E 023°31'0 0.0
2018-Feb-20 00:31N 38°02' E 023°31'0 0.0
2018-Feb-20 00:01N 38°02' E 023°31'0 0.0
2018-Feb-19 23:30N 38°02' E 023°31'0 0.0
2018-Feb-19 23:00N 38°02' E 023°31'0 0.0
2018-Feb-19 22:30N 38°02' E 023°31'0 0.0
2018-Feb-19 22:00N 38°02' E 023°31'0 0.0
2018-Feb-19 21:31N 38°02' E 023°31'0 0.0
2018-Feb-19 21:01N 38°02' E 023°31'0 0.0
2018-Feb-19 20:31N 38°02' E 023°31'0 0.0
2018-Feb-19 20:01N 38°02' E 023°31'0 0.0
2018-Feb-19 19:30N 38°02' E 023°31'0 0.0
2018-Feb-19 19:00N 38°02' E 023°31'0 0.0
2018-Feb-19 18:31N 38°02' E 023°31'0 0.0
2018-Feb-19 18:01N 38°02' E 023°31'0 0.0
2018-Feb-19 17:31N 38°02' E 023°31'0 0.0
2018-Feb-19 17:00N 38°02' E 023°31'0 0.0
2018-Feb-19 16:31N 38°02' E 023°31'0 0.0
2018-Feb-19 16:01N 38°02' E 023°31'0 0.0
2018-Feb-19 15:31N 38°02' E 023°31'0 0.0
2018-Feb-19 15:01N 38°02' E 023°31'0 0.0
2018-Feb-19 14:31N 38°02' E 023°31'0 0.0
2018-Feb-19 14:01N 38°02' E 023°31'0 0.0
2018-Feb-19 13:31N 38°02' E 023°31'0 0.0
2018-Feb-19 13:01N 38°02' E 023°31'0 0.0
2018-Feb-19 12:31N 38°02' E 023°31'0 0.0
2018-Feb-19 12:01N 38°02' E 023°31'0 0.0
2018-Feb-19 11:31N 38°02' E 023°31'0 0.0
2018-Feb-19 11:01N 38°02' E 023°31'0 0.0
2018-Feb-19 10:31N 38°02' E 023°31'0 0.0
2018-Feb-19 10:00N 38°02' E 023°31'0 0.0
2018-Feb-19 09:31N 38°02' E 023°31'0 0.0
2018-Feb-19 09:01N 38°02' E 023°31'0 0.0
2018-Feb-19 08:30N 38°02' E 023°31'2 3.3
2018-Feb-19 08:00N 38°01' E 023°32'4 7.8
2018-Feb-19 07:31N 37°57' E 023°34'2 4.8
2018-Feb-19 07:00N 37°55' E 023°33'0 0.0
2018-Feb-19 06:31N 37°55' E 023°33'0 0.0
2018-Feb-19 06:00N 37°55' E 023°33'0 0.0
2018-Feb-19 05:30N 37°55' E 023°33'2 4.9
2018-Feb-19 05:00N 37°57' E 023°35'4 7.2
2018-Feb-19 04:30N 37°60' E 023°33'3 5.4
2018-Feb-19 04:01N 38°02' E 023°31'0 0.0
2018-Feb-19 03:31N 38°02' E 023°31'0 0.0
2018-Feb-19 03:01N 38°02' E 023°31'0 0.0
2018-Feb-19 02:30N 38°02' E 023°31'0 0.0
2018-Feb-19 02:01N 38°02' E 023°31'0 0.0
2018-Feb-19 01:30N 38°02' E 023°31'0 0.0
2018-Feb-19 01:00N 38°02' E 023°31'0 0.0
2018-Feb-19 00:30N 38°02' E 023°31'0 0.0
2018-Feb-19 00:00N 38°02' E 023°31'0 0.0
2018-Feb-18 23:30N 38°02' E 023°31'0 0.0
2018-Feb-18 23:01N 38°02' E 023°31'0 0.0
2018-Feb-18 22:31N 38°02' E 023°31'0 0.0
2018-Feb-18 22:01N 38°02' E 023°31'0 0.0
2018-Feb-18 21:31N 38°02' E 023°31'0 0.0
2018-Feb-18 21:01N 38°02' E 023°31'0 0.0
2018-Feb-18 20:31N 38°02' E 023°31'0 0.0
2018-Feb-18 20:01N 38°02' E 023°31'0 0.0
2018-Feb-18 19:30N 38°02' E 023°31'0 0.0
2018-Feb-18 19:01N 38°02' E 023°31'0 0.0
2018-Feb-18 18:31N 38°02' E 023°31'0 0.0
2018-Feb-18 18:00N 38°02' E 023°31'0 0.0
2018-Feb-18 17:31N 38°02' E 023°31'0 0.0
2018-Feb-18 17:00N 38°02' E 023°31'0 0.0
2018-Feb-18 16:30N 38°02' E 023°31'0 0.0
2018-Feb-18 16:01N 38°02' E 023°31'0 0.0
2018-Feb-18 15:31N 38°02' E 023°31'0 0.0
2018-Feb-18 15:00N 38°02' E 023°31'0 0.0
2018-Feb-18 14:31N 38°02' E 023°31'0 0.0
2018-Feb-18 14:01N 38°02' E 023°31'0 0.0
2018-Feb-18 13:31N 38°02' E 023°31'0 0.0
2018-Feb-18 13:01N 38°02' E 023°31'0 0.0
2018-Feb-18 12:30N 38°02' E 023°31'0 0.0
2018-Feb-18 12:01N 38°02' E 023°31'0 0.0
2018-Feb-18 11:30N 38°02' E 023°31'0 0.0
2018-Feb-18 11:01N 38°02' E 023°31'0 0.0
2018-Feb-18 10:31N 38°02' E 023°31'0 0.0
2018-Feb-18 10:00N 38°02' E 023°31'0 0.0
2018-Feb-18 09:31N 38°02' E 023°31'0 0.0
2018-Feb-18 09:01N 38°02' E 023°31'0 0.0
2018-Feb-18 08:30N 38°02' E 023°31'0 0.0
2018-Feb-18 08:00N 38°02' E 023°31'0 0.0
2018-Feb-18 07:31N 38°02' E 023°31'0 0.0
2018-Feb-18 07:01N 38°02' E 023°31'4 7.2
2018-Feb-18 06:30N 37°59' E 023°33'3 6.1
2018-Feb-18 06:01N 37°56' E 023°34'1 2.3
2018-Feb-18 05:31N 37°55' E 023°33'0 0.0
2018-Feb-18 05:01N 37°55' E 023°33'0 0.0
2018-Feb-18 04:31N 37°55' E 023°33'0 0.7
2018-Feb-18 04:00N 37°56' E 023°33'0 0.0
2018-Feb-18 03:30N 37°56' E 023°33'0 0.0
2018-Feb-18 03:01N 37°56' E 023°33'0 0.0
2018-Feb-18 02:30N 37°56' E 023°33'0 0.0
2018-Feb-18 02:01N 37°56' E 023°33'0 0.0
2018-Feb-18 01:30N 37°56' E 023°33'0 0.0
2018-Feb-18 01:01N 37°56' E 023°33'0 0.0
2018-Feb-18 00:30N 37°56' E 023°33'0 0.0
2018-Feb-18 00:01N 37°56' E 023°33'0 0.0
2018-Feb-17 23:30N 37°56' E 023°33'0 0.0
2018-Feb-17 23:01N 37°56' E 023°33'0 0.1
2018-Feb-17 22:30N 37°56' E 023°33'0 0.0
2018-Feb-17 22:00N 37°56' E 023°33'0 0.0
2018-Feb-17 21:31N 37°56' E 023°33'0 0.0
2018-Feb-17 21:00N 37°56' E 023°33'0 0.0
2018-Feb-17 20:31N 37°56' E 023°33'0 0.7
2018-Feb-17 20:01N 37°55' E 023°33'2 4.7
2018-Feb-17 19:30N 37°53' E 023°32'0 0.1
2018-Feb-17 19:01N 37°53' E 023°32'0 0.0
2018-Feb-17 18:30N 37°53' E 023°32'0 0.0
2018-Feb-17 18:00N 37°53' E 023°32'0 0.0
2018-Feb-17 17:31N 37°53' E 023°32'0 0.0
2018-Feb-17 17:00N 37°53' E 023°32'2 3.8
2018-Feb-17 16:31N 37°55' E 023°33'3 5.4
2018-Feb-17 16:01N 37°57' E 023°33'4 8.0
2018-Feb-17 15:31N 38°01' E 023°32'1 2.6
2018-Feb-17 15:00N 38°03' E 023°31'0 0.0
2018-Feb-17 14:30N 38°03' E 023°31'0 0.0
2018-Feb-17 14:01N 38°03' E 023°31'0 0.0
2018-Feb-17 13:31N 38°03' E 023°31'0 0.0
2018-Feb-17 13:00N 38°03' E 023°31'0 0.0
2018-Feb-17 12:31N 38°03' E 023°31'0 0.0
2018-Feb-17 12:01N 38°03' E 023°31'0 0.0
2018-Feb-17 11:31N 38°03' E 023°31'0 0.0
2018-Feb-17 11:00N 38°03' E 023°31'0 0.0
2018-Feb-17 10:31N 38°03' E 023°31'0 0.0
2018-Feb-17 10:01N 38°03' E 023°31'0 0.0
2018-Feb-17 09:31N 38°03' E 023°31'0 0.0
2018-Feb-17 09:01N 38°03' E 023°31'0 0.0
2018-Feb-17 08:30N 38°03' E 023°31'0 0.0
2018-Feb-17 08:00N 38°03' E 023°31'0 0.0
2018-Feb-17 07:31N 38°03' E 023°31'0 0.0
2018-Feb-17 07:01N 38°03' E 023°31'0 0.0
2018-Feb-17 06:31N 38°03' E 023°31'0 0.0
2018-Feb-17 06:01N 38°03' E 023°31'0 0.0
2018-Feb-17 05:31N 38°03' E 023°31'0 0.0
2018-Feb-17 05:01N 38°03' E 023°31'0 0.0
2018-Feb-17 04:30N 38°03' E 023°31'0 0.0
2018-Feb-17 04:01N 38°03' E 023°31'0 0.0
2018-Feb-17 03:31N 38°03' E 023°31'0 0.0
2018-Feb-17 03:01N 38°03' E 023°31'0 0.0
2018-Feb-17 02:30N 38°03' E 023°31'0 0.0
2018-Feb-17 02:00N 38°03' E 023°31'0 0.0
2018-Feb-17 01:31N 38°03' E 023°31'0 0.0
2018-Feb-17 01:01N 38°03' E 023°31'0 0.0
2018-Feb-17 00:30N 38°03' E 023°31'0 0.0
2018-Feb-17 00:01N 38°03' E 023°31'0 0.0
2018-Feb-16 23:31N 38°03' E 023°31'0 0.0
2018-Feb-16 23:01N 38°03' E 023°31'0 0.0
2018-Feb-16 22:31N 38°03' E 023°31'0 0.0
2018-Feb-16 22:01N 38°03' E 023°31'0 0.0
2018-Feb-16 21:31N 38°03' E 023°31'0 0.0
2018-Feb-16 21:01N 38°03' E 023°31'0 0.0
2018-Feb-16 20:31N 38°03' E 023°31'0 0.6
2018-Feb-16 20:01N 38°02' E 023°32'2 3.9
2018-Feb-16 19:31N 38°00' E 023°32'0 0.1
2018-Feb-16 19:01N 38°00' E 023°32'0 0.0
2018-Feb-16 18:30N 38°00' E 023°32'0 0.0
2018-Feb-16 18:00N 38°00' E 023°32'1 1.3
2018-Feb-16 17:31N 38°01' E 023°33'2 4.8
2018-Feb-16 17:00N 38°02' E 023°36'0 0.0
2018-Feb-16 16:30N 38°02' E 023°36'0 0.0
2018-Feb-16 16:01N 38°02' E 023°36'0 0.0
2018-Feb-16 15:30N 38°02' E 023°36'0 0.0
2018-Feb-16 15:01N 38°02' E 023°36'0 0.0
2018-Feb-16 14:30N 38°02' E 023°36'0 0.0
2018-Feb-16 14:00N 38°02' E 023°36'1 1.6
2018-Feb-16 13:31N 38°01' E 023°35'0 0.4
2018-Feb-16 13:01N 38°01' E 023°35'0 0.1
2018-Feb-16 12:31N 38°01' E 023°35'0 0.0
2018-Feb-16 12:01N 38°01' E 023°35'0 0.0
2018-Feb-16 11:30N 38°01' E 023°35'0 0.0
2018-Feb-16 11:01N 38°01' E 023°35'0 0.0
2018-Feb-16 10:31N 38°01' E 023°35'0 0.0
2018-Feb-16 10:00N 38°01' E 023°35'0 0.0
2018-Feb-16 09:31N 38°01' E 023°35'0 0.0
2018-Feb-16 09:00N 38°01' E 023°35'0 0.0
2018-Feb-16 08:30N 38°01' E 023°35'0 0.0
2018-Feb-16 08:00N 38°01' E 023°35'0 0.0
2018-Feb-16 07:30N 38°01' E 023°35'0 0.0
2018-Feb-16 07:00N 38°01' E 023°35'0 0.0
2018-Feb-16 06:30N 38°01' E 023°35'2 3.7
2018-Feb-16 06:00N 38°00' E 023°33'3 6.2
2018-Feb-16 05:31N 37°57' E 023°34'3 6.3
2018-Feb-16 05:01N 37°54' E 023°34'3 6.7
2018-Feb-16 04:31N 37°51' E 023°32'0 0.0
2018-Feb-16 04:01N 37°51' E 023°32'0 0.0
2018-Feb-16 03:31N 37°51' E 023°32'0 0.0
2018-Feb-16 03:01N 37°51' E 023°32'0 0.0
2018-Feb-16 02:31N 37°51' E 023°32'0 0.0
2018-Feb-16 02:00N 37°51' E 023°32'0 0.0
2018-Feb-16 01:31N 37°51' E 023°32'0 0.0
2018-Feb-16 01:01N 37°51' E 023°32'0 0.0
2018-Feb-16 00:31N 37°51' E 023°32'0 0.0
2018-Feb-16 00:01N 37°51' E 023°32'0 0.1
2018-Feb-15 23:31N 37°51' E 023°32'1 1.8
2018-Feb-15 23:00N 37°50' E 023°32'1 2.8
2018-Feb-15 22:31N 37°50' E 023°30'4 8.2
2018-Feb-15 22:00N 37°52' E 023°26'4 7.3
2018-Feb-15 21:30N 37°55' E 023°23'3 7.0
2018-Feb-15 21:01N 37°58' E 023°25'3 6.1
2018-Feb-15 20:30N 38°01' E 023°28'3 6.5
2018-Feb-15 20:00N 38°02' E 023°31'0 0.0
2018-Feb-15 19:31N 38°02' E 023°31'0 0.0
2018-Feb-15 19:01N 38°02' E 023°31'0 0.0
2018-Feb-15 18:31N 38°02' E 023°31'0 0.0
2018-Feb-15 18:00N 38°02' E 023°31'0 0.0
2018-Feb-15 17:30N 38°02' E 023°31'0 0.0
2018-Feb-15 17:01N 38°02' E 023°31'0 0.0
2018-Feb-15 16:31N 38°02' E 023°31'0 0.0
2018-Feb-15 16:01N 38°02' E 023°31'0 0.0
2018-Feb-15 15:31N 38°02' E 023°31'0 0.0
2018-Feb-15 15:00N 38°02' E 023°31'0 0.0
2018-Feb-15 14:30N 38°02' E 023°31'0 0.0
2018-Feb-15 14:01N 38°02' E 023°31'0 0.0
2018-Feb-15 13:31N 38°02' E 023°31'0 0.0
2018-Feb-15 13:01N 38°02' E 023°31'0 0.0
2018-Feb-15 12:30N 38°02' E 023°31'0 0.0
2018-Feb-15 12:01N 38°02' E 023°31'0 0.0
2018-Feb-15 11:31N 38°02' E 023°31'0 0.0
2018-Feb-15 11:01N 38°02' E 023°31'0 0.0
2018-Feb-15 10:31N 38°02' E 023°31'0 0.0
2018-Feb-15 10:01N 38°02' E 023°31'0 0.0
2018-Feb-15 09:30N 38°02' E 023°31'1 2.5
2018-Feb-15 09:00N 38°01' E 023°32'0 0.1
2018-Feb-15 08:30N 38°01' E 023°32'0 0.0
2018-Feb-15 08:00N 38°01' E 023°32'0 0.1
2018-Feb-15 07:31N 38°01' E 023°32'0 0.0
2018-Feb-15 07:01N 38°01' E 023°32'0 0.1
2018-Feb-15 06:30N 38°01' E 023°32'0 0.0
2018-Feb-15 06:00N 38°01' E 023°32'1 1.7
2018-Feb-15 05:31N 38°02' E 023°33'2 3.1
2018-Feb-15 05:00N 38°02' E 023°35'0 0.0
2018-Feb-15 04:31N 38°02' E 023°35'0 0.1
2018-Feb-15 04:00N 38°02' E 023°35'0 0.1
2018-Feb-15 03:28N 38°02' E 023°35'0 0.1
2018-Feb-15 03:01N 38°02' E 023°35'1 1.5
2018-Feb-15 02:30N 38°02' E 023°36'0 0.0
2018-Feb-15 02:00N 38°02' E 023°36'0 0.0
2018-Feb-15 01:30N 38°02' E 023°36'0 0.0
2018-Feb-15 01:00N 38°02' E 023°36'0 0.0
2018-Feb-15 00:30N 38°02' E 023°36'0 0.0
2018-Feb-15 00:00N 38°02' E 023°36'1 1.4
2018-Feb-14 23:30N 38°02' E 023°35'0 0.9
2018-Feb-14 23:00N 38°01' E 023°34'0 0.0
2018-Feb-14 22:31N 38°01' E 023°34'0 0.0
2018-Feb-14 22:00N 38°01' E 023°34'0 0.1
2018-Feb-14 21:30N 38°01' E 023°34'0 0.4
2018-Feb-14 21:00N 38°01' E 023°34'2 5.0
2018-Feb-14 20:30N 38°02' E 023°31'0 0.0
2018-Feb-14 20:01N 38°02' E 023°31'0 0.0
2018-Feb-14 19:30N 38°02' E 023°31'0 0.0
2018-Feb-14 19:00N 38°02' E 023°31'0 0.0
2018-Feb-14 18:30N 38°02' E 023°31'0 0.0
2018-Feb-14 18:00N 38°02' E 023°31'0 0.0
2018-Feb-14 17:31N 38°02' E 023°31'0 0.0
2018-Feb-14 16:59N 38°02' E 023°31'0 0.0
2018-Feb-14 16:30N 38°02' E 023°31'0 0.0
2018-Feb-14 16:00N 38°02' E 023°31'0 0.0
2018-Feb-14 15:31N 38°02' E 023°31'0 0.0
2018-Feb-14 15:00N 38°02' E 023°31'0 0.0
2018-Feb-14 14:31N 38°02' E 023°31'0 0.0
2018-Feb-14 14:01N 38°02' E 023°31'0 0.0
2018-Feb-14 13:31N 38°02' E 023°31'0 0.0
2018-Feb-14 13:00N 38°02' E 023°31'0 0.0
2018-Feb-14 12:30N 38°02' E 023°31'0 0.0
2018-Feb-14 12:00N 38°02' E 023°31'0 0.0
2018-Feb-14 11:31N 38°02' E 023°31'0 0.0
2018-Feb-14 11:01N 38°02' E 023°31'0 0.0
2018-Feb-14 10:31N 38°02' E 023°31'0 0.0
2018-Feb-14 10:00N 38°02' E 023°31'0 0.0
2018-Feb-14 09:30N 38°02' E 023°31'0 0.0
2018-Feb-14 09:01N 38°02' E 023°31'0 0.0
2018-Feb-14 08:30N 38°02' E 023°31'0 0.0
2018-Feb-14 08:00N 38°02' E 023°31'0 0.1
2018-Feb-14 07:31N 38°02' E 023°31'3 5.8
2018-Feb-14 07:00N 37°60' E 023°33'3 6.7
2018-Feb-14 06:30N 37°57' E 023°35'1 2.8
2018-Feb-14 06:01N 37°56' E 023°34'0 0.0
2018-Feb-14 05:31N 37°56' E 023°34'0 0.0
2018-Feb-14 05:01N 37°56' E 023°34'0 0.1
2018-Feb-14 04:30N 37°56' E 023°34'0 0.0
2018-Feb-14 04:01N 37°56' E 023°34'0 0.0
2018-Feb-14 03:31N 37°56' E 023°34'0 0.0
2018-Feb-14 03:01N 37°56' E 023°34'0 0.0
2018-Feb-14 02:31N 37°56' E 023°34'0 0.0
2018-Feb-14 02:01N 37°56' E 023°34'0 0.0
2018-Feb-14 01:31N 37°56' E 023°34'0 0.0
2018-Feb-14 01:00N 37°56' E 023°34'0 0.0
2018-Feb-14 00:30N 37°56' E 023°34'0 0.0
2018-Feb-14 00:01N 37°56' E 023°34'0 0.0
2018-Feb-13 23:31N 37°56' E 023°34'0 0.1
2018-Feb-13 23:01N 37°56' E 023°34'0 0.4
2018-Feb-13 22:31N 37°56' E 023°34'2 5.0
2018-Feb-13 22:01N 37°58' E 023°36'0 0.0
2018-Feb-13 21:31N 37°58' E 023°36'0 0.0
2018-Feb-13 21:00N 37°58' E 023°36'0 0.0
2018-Feb-13 20:30N 37°58' E 023°36'0 0.0
2018-Feb-13 20:01N 37°58' E 023°36'0 0.7
2018-Feb-13 19:30N 37°57' E 023°36'2 4.7
2018-Feb-13 19:01N 37°56' E 023°34'0 0.0
2018-Feb-13 18:30N 37°56' E 023°34'  

Dump ship's entire track history